Time;durP1;ratioP1;P1;durP2;ratioP2;P2;SDS_P1;SDS_P2;PMS_P1;PMS_P2;Temp;Humidity;BMP_temperature;BMP_pressure;BME280_temperature;BME280_humidity;BME280_pressure;Samples;Min_cycle;Max_cycle;Signal;HPM_P1;HPM_P2
2021/10/28 00:13:08;;;;;;;4.65;2.03;;;18.90;68.00;;;;;;6223294;23;20163;-80
2021/10/28 00:15:37;;;;;;;4.10;2.25;;;18.90;68.30;;;;;;6220673;23;20149;-80
2021/10/28 00:18:09;;;;;;;3.33;2.10;;;18.90;68.50;;;;;;6246615;23;20208;-80
2021/10/28 00:20:35;;;;;;;3.80;2.33;;;18.90;68.20;;;;;;6247049;23;20216;-80
2021/10/28 00:23:03;;;;;;;3.28;2.25;;;18.90;68.10;;;;;;6219725;23;20566;-80
2021/10/28 00:25:29;;;;;;;3.80;2.17;;;18.90;68.00;;;;;;6219711;23;20496;-80
2021/10/28 00:27:55;;;;;;;4.57;2.53;;;18.90;68.10;;;;;;6246951;23;20134;-80
2021/10/28 00:30:20;;;;;;;3.10;2.13;;;18.90;68.20;;;;;;6246256;23;20134;-79
2021/10/28 00:32:46;;;;;;;3.53;2.10;;;18.90;68.10;;;;;;6219597;23;20160;-80
2021/10/28 00:35:13;;;;;;;4.10;2.28;;;18.90;68.30;;;;;;6246085;23;20156;-80
2021/10/28 00:37:38;;;;;;;2.75;2.03;;;18.90;68.20;;;;;;6219574;23;20145;-80
2021/10/28 00:40:06;;;;;;;5.80;2.08;;;18.90;68.30;;;;;;6246182;23;20169;-80
2021/10/28 00:42:33;;;;;;;2.50;1.90;;;18.90;68.30;;;;;;6219563;23;20129;-80
2021/10/28 00:44:59;;;;;;;4.72;2.20;;;18.80;68.00;;;;;;6194383;23;20222;-80
2021/10/28 00:47:25;;;;;;;3.83;2.10;;;18.90;68.30;;;;;;6246440;23;20161;-80
2021/10/28 00:49:51;;;;;;;2.70;2.10;;;18.90;68.00;;;;;;6246407;23;20210;-80
2021/10/28 00:52:17;;;;;;;2.55;2.03;;;18.90;68.20;;;;;;6219125;23;20130;-80
2021/10/28 00:54:43;;;;;;;2.63;2.10;;;18.90;68.40;;;;;;6246042;23;20130;-80
2021/10/28 00:57:09;;;;;;;3.83;2.00;;;18.90;68.60;;;;;;6246240;23;20129;-80
2021/10/28 00:59:35;;;;;;;2.83;2.20;;;18.90;68.10;;;;;;6246413;23;20209;-80
2021/10/28 01:02:01;;;;;;;3.38;2.08;;;18.80;68.10;;;;;;6246038;23;20126;-79
2021/10/28 01:04:27;;;;;;;3.53;2.13;;;18.90;68.50;;;;;;6245947;23;20465;-80
2021/10/28 01:06:54;;;;;;;2.90;1.77;;;18.90;68.40;;;;;;6245812;23;20185;-80
2021/10/28 01:09:22;;;;;;;2.72;1.92;;;18.90;68.40;;;;;;6219247;23;20134;-80
2021/10/28 01:11:48;;;;;;;2.08;1.77;;;18.90;68.10;;;;;;6246048;23;20465;-80
2021/10/28 01:14:14;;;;;;;2.95;2.13;;;18.90;68.40;;;;;;6245922;23;20240;-80
2021/10/28 01:16:39;;;;;;;2.40;1.77;;;18.90;68.70;;;;;;6245919;23;20224;-80
2021/10/28 01:19:05;;;;;;;2.97;2.05;;;18.80;68.20;;;;;;6219092;23;20197;-80
2021/10/28 01:21:30;;;;;;;3.72;1.80;;;18.80;68.70;;;;;;6219136;23;20183;-80
2021/10/28 01:23:56;;;;;;;2.45;2.00;;;18.80;68.80;;;;;;6245843;23;20209;-80
2021/10/28 01:26:23;;;;;;;2.95;2.22;;;18.80;68.60;;;;;;6246253;23;20451;-80
2021/10/28 01:28:55;;;;;;;2.60;2.13;;;18.80;68.50;;;;;;6219347;23;20180;-80
2021/10/28 01:31:22;;;;;;;2.92;2.30;;;18.80;68.30;;;;;;6220694;23;20133;-80
2021/10/28 01:33:47;;;;;;;4.00;2.08;;;18.80;68.60;;;;;;6219268;23;20137;-80
2021/10/28 01:36:13;;;;;;;2.72;1.70;;;18.80;68.60;;;;;;6245874;23;20212;-79
2021/10/28 01:38:41;;;;;;;2.83;2.00;;;18.80;68.60;;;;;;6219233;23;20191;-80
2021/10/28 01:41:07;;;;;;;5.65;2.30;;;18.80;68.90;;;;;;6194385;23;20173;-80
2021/10/28 01:43:33;;;;;;;3.25;2.15;;;18.70;68.80;;;;;;6246190;23;20141;-80
2021/10/28 01:45:59;;;;;;;2.50;2.03;;;18.70;69.30;;;;;;6219180;23;20157;-80
2021/10/28 01:48:25;;;;;;;3.53;1.77;;;18.70;69.40;;;;;;6246061;23;20569;-80
2021/10/28 01:50:51;;;;;;;2.47;2.10;;;18.70;68.70;;;;;;6245697;23;20232;-80
2021/10/28 01:53:17;;;;;;;4.15;2.15;;;18.70;68.70;;;;;;6245792;23;20205;-80
2021/10/28 01:55:43;;;;;;;2.50;1.90;;;18.70;68.90;;;;;;6245785;23;20134;-80
2021/10/28 01:58:10;;;;;;;3.88;2.13;;;18.70;69.00;;;;;;6246343;23;20481;-80
2021/10/28 02:00:38;;;;;;;3.05;2.10;;;18.70;69.30;;;;;;6245787;23;20135;-80
2021/10/28 02:03:04;;;;;;;2.45;1.95;;;18.70;68.90;;;;;;6245664;23;20557;-80
2021/10/28 02:05:30;;;;;;;4.28;2.25;;;18.70;68.90;;;;;;6220588;23;20130;-80
2021/10/28 02:07:55;;;;;;;2.33;2.00;;;18.70;69.00;;;;;;6247702;23;20500;-80
2021/10/28 02:10:21;;;;;;;4.05;2.15;;;18.70;68.90;;;;;;6220992;23;20144;-80
2021/10/28 02:12:47;;;;;;;2.47;2.10;;;18.70;69.10;;;;;;6247989;23;20178;-80
2021/10/28 02:15:15;;;;;;;2.30;2.03;;;18.70;69.10;;;;;;6247905;23;20561;-80
2021/10/28 02:17:41;;;;;;;3.63;2.10;;;18.70;69.40;;;;;;6247853;23;20133;-80
2021/10/28 02:20:08;;;;;;;3.38;2.08;;;18.70;69.60;;;;;;6221233;23;20169;-80
2021/10/28 02:22:34;;;;;;;4.15;2.10;;;18.70;68.80;;;;;;6195924;23;20195;-80
2021/10/28 02:25:00;;;;;;;2.88;2.30;;;18.70;69.30;;;;;;6247610;23;20187;-80
2021/10/28 02:27:26;;;;;;;3.28;2.00;;;18.70;69.50;;;;;;6220735;23;20145;-80
2021/10/28 02:29:52;;;;;;;2.97;1.80;;;18.70;69.30;;;;;;6247499;23;20144;-81
2021/10/28 02:32:18;;;;;;;4.75;2.08;;;18.70;69.10;;;;;;6247600;23;20525;-80
2021/10/28 02:34:44;;;;;;;3.80;2.22;;;18.70;69.20;;;;;;6247738;23;20457;-80
2021/10/28 02:37:09;;;;;;;2.50;2.20;;;18.70;69.20;;;;;;6247865;23;20137;-80
2021/10/28 02:39:35;;;;;;;2.10;1.90;;;18.70;69.40;;;;;;6220746;23;20181;-80
2021/10/28 02:42:01;;;;;;;3.55;2.08;;;18.70;69.40;;;;;;6221085;23;20137;-80
2021/10/28 02:44:26;;;;;;;4.45;2.03;;;18.70;69.20;;;;;;6247901;23;20138;-80
2021/10/28 02:46:52;;;;;;;2.45;1.90;;;18.70;69.10;;;;;;6220439;23;20604;-80
2021/10/28 02:49:18;;;;;;;3.05;2.35;;;18.70;68.80;;;;;;6220684;23;20237;-80
2021/10/28 02:51:46;;;;;;;3.22;1.90;;;18.70;68.90;;;;;;6247253;23;20141;-80
2021/10/28 02:54:14;;;;;;;2.47;1.98;;;18.70;68.90;;;;;;6221205;23;20145;-80
2021/10/28 02:56:40;;;;;;;4.13;2.03;;;18.70;68.70;;;;;;6247278;23;20133;-80
2021/10/28 02:59:06;;;;;;;2.65;1.90;;;18.70;69.00;;;;;;6247387;23;20173;-80
2021/10/28 03:01:31;;;;;;;2.70;2.20;;;18.70;69.00;;;;;;6247129;23;20219;-80
2021/10/28 03:03:57;;;;;;;3.60;2.45;;;18.70;69.40;;;;;;6220472;23;20240;-79
2021/10/28 03:06:23;;;;;;;3.78;2.53;;;18.70;69.00;;;;;;6246760;23;20197;-80
2021/10/28 03:08:49;;;;;;;3.60;2.20;;;18.70;69.20;;;;;;6247207;23;20146;-80
2021/10/28 03:11:16;;;;;;;4.38;2.25;;;18.60;69.70;;;;;;6247432;23;20148;-79
2021/10/28 03:13:45;;;;;;;3.05;2.00;;;18.60;69.50;;;;;;6247566;23;20156;-79
2021/10/28 03:16:18;;;;;;;4.22;2.10;;;18.60;69.40;;;;;;6247117;23;20134;-79
2021/10/28 03:26:45;;;;;;;3.25;2.00;;;18.70;68.80;;;;;;6247016;23;20130;-79
2021/10/28 03:29:11;;;;;;;2.10;1.73;;;18.80;68.80;;;;;;6246858;23;20449;-79
2021/10/28 03:31:37;;;;;;;2.50;1.80;;;18.80;68.20;;;;;;6246824;23;20229;-79
2021/10/28 03:34:02;;;;;;;2.67;1.90;;;18.80;68.10;;;;;;6220038;23;20160;-79
2021/10/28 03:39:14;;;;;;;3.45;2.05;;;18.90;68.00;;;;;;6246638;23;20169;-79
2021/10/28 03:44:59;;;;;;;2.63;2.10;;;18.90;68.30;;;;;;6246726;23;20212;-79
2021/10/28 03:47:22;;;;;;;3.08;1.88;;;18.90;68.40;;;;;;6246425;23;20179;-79
2021/10/28 03:50:23;;;;;;;2.30;1.88;;;18.80;69.20;;;;;;6246761;23;20141;-79
2021/10/28 03:53:13;;;;;;;2.35;1.88;;;18.90;67.90;;;;;;6246524;23;20160;-79
2021/10/28 04:16:27;;;;;;;2.00;1.70;;;18.90;68.00;;;;;;6203347;23;20161;-79
2021/10/28 04:19:43;;;;;;;3.88;2.13;;;19.00;67.50;;;;;;6222612;23;20169;-79
2021/10/28 04:30:09;;;;;;;2.55;1.73;;;19.10;66.90;;;;;;6246462;23;20156;-79
2021/10/28 04:32:35;;;;;;;1.92;1.73;;;19.00;66.60;;;;;;6219698;23;20492;-79
2021/10/28 04:35:01;;;;;;;3.72;2.08;;;19.10;67.70;;;;;;6246097;23;20138;-79
2021/10/28 04:37:26;;;;;;;2.55;1.92;;;19.00;67.40;;;;;;6246122;23;20137;-79
2021/10/28 04:39:54;;;;;;;3.30;2.13;;;19.00;67.60;;;;;;6246147;23;20496;-79
2021/10/28 04:42:20;;;;;;;2.60;1.90;;;19.00;67.30;;;;;;6219895;23;20152;-79
2021/10/28 04:44:45;;;;;;;4.22;1.90;;;19.00;66.90;;;;;;6246244;23;20553;-78
2021/10/28 04:47:11;;;;;;;3.05;1.75;;;19.00;67.20;;;;;;6219409;23;20134;-78
2021/10/28 04:49:37;;;;;;;3.75;1.70;;;19.00;67.70;;;;;;6219607;23;20485;-78
2021/10/28 04:52:03;;;;;;;2.20;1.60;;;19.00;67.70;;;;;;6246534;23;20495;-79
2021/10/28 04:54:29;;;;;;;2.33;1.90;;;19.00;67.30;;;;;;6219238;23;20137;-78
2021/10/28 04:56:54;;;;;;;3.58;1.80;;;19.10;67.30;;;;;;6245365;23;20502;-78
2021/10/28 04:59:20;;;;;;;3.28;2.00;;;19.10;67.10;;;;;;6244786;23;20173;-79
2021/10/28 05:01:46;;;;;;;3.00;1.95;;;19.10;67.40;;;;;;6246028;23;20141;-78
2021/10/28 05:04:11;;;;;;;2.60;1.50;;;19.00;67.30;;;;;;6246119;23;20414;-79
2021/10/28 05:06:37;;;;;;;1.75;1.65;;;19.10;67.00;;;;;;6214131;23;20221;-78
2021/10/28 05:09:04;;;;;;;2.42;2.00;;;19.10;67.10;;;;;;6214334;23;20562;-79
2021/10/28 05:11:30;;;;;;;2.53;1.90;;;19.10;67.20;;;;;;6214248;23;20134;-78
2021/10/28 05:13:56;;;;;;;2.78;1.90;;;19.00;67.20;;;;;;6214409;23;20184;-78
2021/10/28 05:16:21;;;;;;;2.60;2.10;;;19.10;66.70;;;;;;6216000;23;20566;-78
2021/10/28 05:18:47;;;;;;;2.42;1.77;;;19.10;66.60;;;;;;6214117;23;20201;-79
2021/10/28 05:21:14;;;;;;;2.53;1.75;;;19.10;67.00;;;;;;6215085;23;20562;-79
2021/10/28 05:23:40;;;;;;;2.67;1.88;;;19.10;66.50;;;;;;6215730;23;20138;-78
2021/10/28 05:26:06;;;;;;;2.50;1.95;;;19.10;67.30;;;;;;6213115;23;20226;-79
2021/10/28 05:28:32;;;;;;;1.92;1.70;;;19.10;66.90;;;;;;6213260;23;20650;-78
2021/10/28 05:30:58;;;;;;;1.95;1.75;;;19.10;66.80;;;;;;6212508;23;20447;-79
2021/10/28 05:33:23;;;;;;;2.30;2.10;;;19.10;66.50;;;;;;6188699;23;20156;-79
2021/10/28 05:35:49;;;;;;;2.63;1.98;;;19.10;67.00;;;;;;6188755;23;20614;-78
2021/10/28 05:38:15;;;;;;;2.38;1.80;;;19.10;67.00;;;;;;6215700;23;20514;-79
2021/10/28 05:40:41;;;;;;;2.50;1.95;;;19.10;66.30;;;;;;6215585;23;20138;-79
2021/10/28 05:43:09;;;;;;;1.90;1.65;;;19.20;67.30;;;;;;6189137;23;20472;-78
2021/10/28 05:45:35;;;;;;;2.88;1.85;;;19.10;66.80;;;;;;6215925;23;20184;-79
2021/10/28 05:48:01;;;;;;;2.47;2.03;;;19.10;66.90;;;;;;6190613;23;20651;-79
2021/10/28 05:50:27;;;;;;;2.95;1.75;;;19.10;66.80;;;;;;6217200;23;20166;-79
2021/10/28 05:52:54;;;;;;;4.47;1.92;;;19.10;67.00;;;;;;6215804;23;20140;-79
2021/10/28 05:55:21;;;;;;;1.70;1.58;;;19.10;66.50;;;;;;6215843;23;20169;-78
2021/10/28 05:57:47;;;;;;;2.03;1.83;;;19.20;66.50;;;;;;6215814;23;20134;-78
2021/10/28 06:00:13;;;;;;;3.92;2.03;;;19.10;66.70;;;;;;6215403;23;20220;-78
2021/10/28 06:02:39;;;;;;;2.55;2.00;;;19.10;66.90;;;;;;6217340;23;20225;-78
2021/10/28 06:05:05;;;;;;;2.10;1.90;;;19.10;66.80;;;;;;6215987;23;20130;-78
2021/10/28 06:07:33;;;;;;;1.83;1.65;;;19.10;67.10;;;;;;6245017;23;20231;-79
2021/10/28 06:09:59;;;;;;;2.15;1.80;;;19.20;66.50;;;;;;6220981;23;20133;-78
2021/10/28 06:12:27;;;;;;;2.85;2.00;;;19.10;66.90;;;;;;6246057;23;20561;-78
2021/10/28 06:14:55;;;;;;;2.45;1.90;;;19.20;66.50;;;;;;6247394;23;20195;-80
2021/10/28 06:17:29;;;;;;;2.90;2.00;;;19.30;66.50;;;;;;6246678;23;20137;-79
2021/10/28 06:19:54;;;;;;;1.83;1.73;;;19.30;66.40;;;;;;6220154;23;20623;-78
2021/10/28 06:22:20;;;;;;;2.78;2.00;;;19.20;66.30;;;;;;6246773;23;20133;-79
2021/10/28 06:24:46;;;;;;;3.85;2.10;;;19.20;66.80;;;;;;6247162;23;20160;-80
2021/10/28 06:27:11;;;;;;;3.45;2.05;;;19.30;66.40;;;;;;6246979;23;20137;-79
2021/10/28 06:29:37;;;;;;;3.08;1.90;;;19.20;65.90;;;;;;6247050;23;20509;-79
2021/10/28 06:32:03;;;;;;;4.75;2.10;;;19.30;66.60;;;;;;6246921;23;20187;-77
2021/10/28 06:34:37;;;;;;;3.90;1.88;;;19.20;66.40;;;;;;6246689;23;20154;-78
2021/10/28 06:37:05;;;;;;;3.30;1.85;;;19.30;66.50;;;;;;6246648;23;20134;-78
2021/10/28 06:39:31;;;;;;;2.63;1.90;;;19.20;66.90;;;;;;6245993;23;20168;-77
2021/10/28 06:41:57;;;;;;;2.10;1.85;;;19.30;66.30;;;;;;6246613;23;20151;-78
2021/10/28 06:44:22;;;;;;;2.13;1.92;;;19.30;66.10;;;;;;6247758;23;20145;-78
2021/10/28 06:46:48;;;;;;;3.05;2.13;;;19.30;66.20;;;;;;6247673;23;20129;-79
2021/10/28 06:49:16;;;;;;;4.65;2.00;;;19.30;66.50;;;;;;6246183;23;20144;-79
2021/10/28 06:51:42;;;;;;;2.20;1.80;;;19.30;66.60;;;;;;6246157;23;20133;-79
2021/10/28 06:54:18;;;;;;;3.50;1.80;;;19.30;66.70;;;;;;6246708;23;20134;-78
2021/10/28 07:04:43;;;;;;;3.42;1.80;;;19.30;66.80;;;;;;6246013;23;20141;-79
2021/10/28 07:07:09;;;;;;;2.65;1.77;;;19.30;66.20;;;;;;6246636;23;20549;-79
2021/10/28 07:09:38;;;;;;;4.90;2.03;;;19.40;66.50;;;;;;6246032;23;20140;-79
2021/10/28 07:14:47;;;;;;;3.90;1.80;;;19.40;66.90;;;;;;6222008;23;20164;-78
2021/10/28 07:22:46;;;;;;;2.63;2.10;;;19.40;66.30;;;;;;6245513;23;20133;-81
2021/10/28 07:28:06;;;;;;;3.65;1.75;;;19.40;66.60;;;;;;6245750;23;20130;-79
2021/10/28 07:30:44;;;;;;;3.45;2.20;;;19.40;66.30;;;;;;6221829;23;20153;-78
2021/10/28 07:33:37;;;;;;;2.85;2.05;;;19.40;66.00;;;;;;6221284;23;20129;-78
2021/10/28 07:38:43;;;;;;;3.47;2.50;;;19.50;66.40;;;;;;6221341;23;20176;-78
2021/10/28 07:57:36;;;;;;;4.07;2.38;;;19.50;66.30;;;;;;6245906;23;20137;-78
2021/10/28 08:05:46;;;;;;;5.55;2.13;;;19.50;66.60;;;;;;6246181;23;20593;-79
2021/10/28 08:21:40;;;;;;;4.28;2.10;;;19.50;66.40;;;;;;6245476;23;20168;-78
2021/10/28 08:24:20;;;;;;;4.22;2.25;;;19.50;66.60;;;;;;6221618;23;20187;-78
2021/10/28 08:29:27;;;;;;;3.10;1.80;;;19.50;66.40;;;;;;6246636;23;20138;-78
2021/10/28 08:31:53;;;;;;;2.67;1.80;;;19.50;66.50;;;;;;6219594;23;20465;-79
2021/10/28 08:34:25;;;;;;;1.92;1.65;;;19.50;67.30;;;;;;6219658;23;20153;-78
2021/10/28 08:36:52;;;;;;;1.67;1.58;;;19.50;66.40;;;;;;6246158;23;20144;-78
2021/10/28 08:39:20;;;;;;;2.28;1.80;;;19.50;66.30;;;;;;6242827;23;20323;-78
2021/10/28 08:41:46;;;;;;;2.78;1.95;;;19.50;66.30;;;;;;6216596;23;20181;-78
2021/10/28 08:44:14;;;;;;;2.45;2.00;;;19.50;66.50;;;;;;6242953;23;20232;-77
2021/10/28 08:46:43;;;;;;;3.00;1.90;;;19.50;66.70;;;;;;6216520;23;20632;-77
2021/10/28 08:49:15;;;;;;;4.70;1.98;;;19.50;66.50;;;;;;6243265;23;20141;-79
2021/10/28 08:51:55;;;;;;;2.10;1.70;;;19.50;66.40;;;;;;6244286;23;20133;-78
2021/10/28 08:57:19;;;;;;;1.92;1.77;;;19.60;66.50;;;;;;6246050;23;20129;-78
2021/10/28 09:00:08;;;;;;;3.78;2.03;;;19.60;66.60;;;;;;6246135;23;20177;-77
2021/10/28 09:24:32;;;;;;;1.85;1.48;;;19.60;66.70;;;;;;6222778;23;20134;-79
2021/10/28 09:27:05;;;;;;;2.50;1.70;;;19.60;66.70;;;;;;6194072;23;20200;-78
2021/10/28 09:32:26;;;;;;;4.00;2.00;;;19.60;66.80;;;;;;6221597;23;20538;-79
2021/10/28 09:46:38;;;;;;;2.03;1.58;;;19.70;67.00;;;;;;6245043;23;20134;-79
2021/10/28 09:52:03;;;;;;;4.90;1.70;;;19.60;66.60;;;;;;6203006;23;20146;-81
2021/10/28 09:54:35;;;;;;;2.38;1.60;;;19.60;66.80;;;;;;6220116;23;20134;-80
2021/10/28 09:59:50;;;;;;;2.67;1.90;;;19.70;66.70;;;;;;6222052;23;20183;-80
2021/10/28 10:02:37;;;;;;;3.30;1.80;;;19.60;66.80;;;;;;6218611;23;20126;-80
2021/10/28 10:05:05;;;;;;;3.70;1.95;;;19.60;66.80;;;;;;6245480;23;20137;-82
2021/10/28 10:07:31;;;;;;;2.53;1.70;;;19.70;67.00;;;;;;6218288;23;20196;-81
2021/10/28 10:09:58;;;;;;;2.70;1.52;;;19.70;66.80;;;;;;6219263;23;20211;-79
2021/10/28 10:12:24;;;;;;;1.90;1.58;;;19.70;66.90;;;;;;6247561;23;20161;-82
2021/10/28 10:14:49;;;;;;;2.95;1.60;;;19.70;67.00;;;;;;6246612;23;20454;-80
2021/10/28 10:17:17;;;;;;;2.05;1.70;;;19.70;66.90;;;;;;6193174;23;20150;-81
2021/10/28 10:19:46;;;;;;;2.85;1.70;;;19.70;67.00;;;;;;6220272;23;20628;-81
2021/10/28 10:22:19;;;;;;;1.60;1.30;;;19.70;67.10;;;;;;6221223;23;20144;-81
2021/10/28 11:03:04;;;;;;;1.90;1.50;;;19.70;67.20;;;;;;6224735;23;20149;-80
2021/10/28 11:15:43;;;;;;;3.05;1.80;;;19.60;67.00;;;;;;6246504;23;20272;-80
2021/10/28 11:32:41;;;;;;;1.77;1.52;;;19.60;67.20;;;;;;6246248;23;20145;-80
2021/10/28 12:44:36;;;;;;;2.10;1.73;;;19.90;66.90;;;;;;6246891;23;20426;-79
2021/10/28 13:04:00;;;;;;;3.75;1.50;;;19.80;67.10;;;;;;6223246;23;20133;-80
2021/10/28 13:06:36;;;;;;;2.17;1.75;;;19.80;66.90;;;;;;6245396;23;20197;-80
2021/10/28 13:36:06;;;;;;;3.38;1.90;;;19.80;67.00;;;;;;6248031;23;20140;-80
2021/10/28 13:48:01;;;;;;;2.20;1.58;;;19.90;67.10;;;;;;6251649;23;20654;-80
2021/10/28 13:52:38;;;;;;;1.95;1.70;;;19.90;67.00;;;;;;6222446;23;20149;-80
2021/10/28 13:55:22;;;;;;;3.08;1.58;;;20.00;66.80;;;;;;6245704;23;20665;-79
2021/10/28 13:58:06;;;;;;;3.15;1.58;;;20.00;66.80;;;;;;6222590;23;20176;-81
2021/10/28 14:23:13;;;;;;;3.67;1.73;;;20.00;67.20;;;;;;6159853;23;20241;-80
2021/10/28 14:26:22;;;;;;;1.98;1.50;;;20.00;67.60;;;;;;6162588;23;20151;-79
2021/10/28 14:31:35;;;;;;;2.28;1.90;;;19.90;66.80;;;;;;6165295;23;20652;-82
2021/10/28 15:01:00;;;;;;;4.07;1.80;;;20.00;66.20;;;;;;6144923;23;20193;-81
2021/10/28 15:30:13;;;;;;;3.30;1.80;;;20.00;68.00;;;;;;6223892;23;20138;-81
2021/10/28 15:35:26;;;;;;;1.90;1.70;;;20.00;68.10;;;;;;6220000;23;20141;-80
2021/10/28 15:38:00;;;;;;;4.20;1.70;;;20.00;67.30;;;;;;6220131;23;20134;-81
2021/10/28 15:40:41;;;;;;;3.38;1.50;;;20.00;67.80;;;;;;6219880;23;20162;-81
2021/10/28 15:43:27;;;;;;;2.78;1.63;;;20.20;67.60;;;;;;6221646;23;20130;-82
2021/10/28 15:54:08;;;;;;;2.92;1.88;;;20.20;67.90;;;;;;6217202;23;20130;-80
2021/10/28 15:56:51;;;;;;;3.60;2.10;;;20.10;67.50;;;;;;6218251;23;20130;-82
2021/10/28 15:59:40;;;;;;;5.15;1.75;;;20.20;67.70;;;;;;6216021;23;20178;-83
2021/10/28 16:23:29;;;;;;;2.80;1.50;;;20.30;68.20;;;;;;6217644;23;20130;-81
2021/10/28 16:25:54;;;;;;;3.65;1.67;;;20.20;68.00;;;;;;6218235;23;20549;-82
2021/10/28 16:28:21;;;;;;;2.08;1.60;;;20.20;68.10;;;;;;6218535;23;20541;-81
2021/10/28 16:30:47;;;;;;;4.97;2.00;;;20.20;68.20;;;;;;6216811;23;20156;-82
2021/10/28 16:33:13;;;;;;;5.03;1.95;;;20.30;68.30;;;;;;6216393;23;20169;-83
2021/10/28 16:35:40;;;;;;;5.43;1.73;;;20.30;68.50;;;;;;6216500;23;20130;-81
2021/10/28 16:38:08;;;;;;;1.85;1.40;;;20.30;68.20;;;;;;6192436;23;20229;-84
2021/10/28 16:40:33;;;;;;;1.75;1.52;;;20.30;67.90;;;;;;6219186;23;20177;-82
2021/10/28 16:42:59;;;;;;;3.17;1.85;;;20.30;68.30;;;;;;6221241;23;20133;-84
2021/10/28 16:45:25;;;;;;;3.28;2.10;;;20.30;68.50;;;;;;6220498;23;20159;-81
2021/10/28 16:47:50;;;;;;;3.30;1.70;;;20.30;68.40;;;;;;6217330;23;20621;-81
2021/10/28 16:50:17;;;;;;;1.65;1.55;;;20.30;68.60;;;;;;6218267;23;20580;-83
2021/10/28 16:52:43;;;;;;;3.03;1.77;;;20.30;68.50;;;;;;6215727;23;20205;-82
2021/10/28 16:55:09;;;;;;;3.65;1.92;;;20.30;68.30;;;;;;6214853;23;20131;-81
2021/10/28 16:57:35;;;;;;;2.97;1.80;;;20.30;68.00;;;;;;6214631;23;20157;-82
2021/10/28 17:00:03;;;;;;;4.07;1.67;;;20.30;67.90;;;;;;6213915;23;20170;-80
2021/10/28 17:02:29;;;;;;;3.42;1.98;;;20.30;68.20;;;;;;6215518;23;20592;-83
2021/10/28 17:04:57;;;;;;;3.92;2.08;;;20.30;68.60;;;;;;6219391;23;20178;-82
2021/10/28 17:07:22;;;;;;;2.55;1.95;;;20.30;68.70;;;;;;6215053;23;20197;-80
2021/10/28 17:09:49;;;;;;;1.63;1.33;;;20.20;68.90;;;;;;6217642;23;20162;-81
2021/10/28 17:12:15;;;;;;;3.95;1.98;;;20.20;67.40;;;;;;6219843;23;20130;-82
2021/10/28 17:14:41;;;;;;;3.17;2.10;;;20.20;69.20;;;;;;6196044;23;20176;-80
2021/10/28 17:17:07;;;;;;;5.53;1.73;;;20.10;69.40;;;;;;6220454;23;20169;-81
2021/10/28 17:19:32;;;;;;;5.97;2.03;;;20.20;69.20;;;;;;6196499;23;20251;-83
2021/10/28 17:21:58;;;;;;;3.20;2.05;;;20.20;68.30;;;;;;6218897;23;20127;-81
2021/10/28 17:24:34;;;;;;;4.68;2.20;;;20.20;68.90;;;;;;6218111;23;20149;-84
2021/10/28 17:27:00;;;;;;;10.35;2.40;;;20.10;69.20;;;;;;6216579;23;20517;-84
2021/10/28 17:29:25;;;;;;;4.30;1.85;;;20.10;69.30;;;;;;6189486;23;20233;-83
2021/10/28 17:31:56;;;;;;;2.53;1.80;;;20.10;69.40;;;;;;6214270;23;20146;-79
2021/10/28 17:34:23;;;;;;;3.10;2.00;;;20.20;69.20;;;;;;6214401;23;20516;-82
2021/10/28 17:36:52;;;;;;;4.28;1.80;;;20.20;69.50;;;;;;6216587;23;20141;-82
2021/10/28 17:39:21;;;;;;;3.15;1.83;;;20.20;69.40;;;;;;6215988;23;20178;-84
2021/10/28 17:41:47;;;;;;;3.22;2.00;;;20.10;69.10;;;;;;6215868;23;20137;-83
2021/10/28 17:44:13;;;;;;;4.05;2.22;;;20.20;69.40;;;;;;6216535;23;20134;-83
2021/10/28 17:46:38;;;;;;;4.43;2.13;;;20.10;68.90;;;;;;6218591;23;20304;-80
2021/10/28 17:49:04;;;;;;;4.55;1.80;;;20.20;69.50;;;;;;6218692;23;20130;-79
2021/10/28 17:51:36;;;;;;;5.70;2.10;;;20.20;70.00;;;;;;6222595;23;20213;-81
2021/10/28 17:54:02;;;;;;;3.30;1.90;;;20.20;70.70;;;;;;6219484;23;20174;-81
2021/10/28 17:56:28;;;;;;;3.30;2.03;;;20.20;70.10;;;;;;6221830;23;20157;-80
2021/10/28 17:58:56;;;;;;;5.05;1.90;;;20.20;71.00;;;;;;6218060;23;20192;-79
2021/10/28 18:01:26;;;;;;;4.90;1.80;;;20.20;70.40;;;;;;6221448;23;20131;-79
2021/10/28 18:03:57;;;;;;;6.93;1.90;;;20.10;70.80;;;;;;6225141;23;20609;-78
2021/10/28 18:06:23;;;;;;;4.85;2.22;;;20.10;70.90;;;;;;6236137;23;20189;-78
2021/10/28 18:08:49;;;;;;;4.28;2.00;;;20.20;70.70;;;;;;6257060;23;20153;-79
2021/10/28 18:11:14;;;;;;;5.35;2.10;;;20.20;71.00;;;;;;6229192;23;20165;-79
2021/10/28 18:13:41;;;;;;;2.42;1.73;;;20.20;70.70;;;;;;6256334;23;20130;-79
2021/10/28 18:16:07;;;;;;;3.97;1.95;;;20.10;70.40;;;;;;6204102;23;20173;-80
2021/10/28 18:18:36;;;;;;;4.75;2.05;;;20.20;70.40;;;;;;6256081;23;20129;-80
2021/10/28 18:21:06;;;;;;;5.28;1.95;;;20.10;70.90;;;;;;6233196;23;20126;-77
2021/10/28 18:23:32;;;;;;;2.55;1.63;;;20.10;70.90;;;;;;6258679;23;20189;-77
2021/10/28 18:25:58;;;;;;;4.00;2.10;;;20.10;70.20;;;;;;6230578;23;20149;-77
2021/10/28 18:28:25;;;;;;;4.03;2.03;;;20.10;70.50;;;;;;6259078;23;20157;-78
2021/10/28 18:30:52;;;;;;;3.13;1.77;;;20.10;70.70;;;;;;6229234;23;20149;-76
2021/10/28 18:33:20;;;;;;;4.30;2.10;;;20.10;70.00;;;;;;6258177;23;20134;-78
2021/10/28 18:35:52;;;;;;;5.70;1.90;;;20.10;70.10;;;;;;6258896;23;20156;-77
2021/10/28 18:38:17;;;;;;;5.28;1.90;;;20.10;69.80;;;;;;6257935;23;20126;-78
2021/10/28 18:40:46;;;;;;;6.80;1.92;;;20.10;69.90;;;;;;6231226;23;20169;-77
2021/10/28 18:43:16;;;;;;;3.58;2.13;;;20.10;70.10;;;;;;6259119;23;20138;-77
2021/10/28 18:45:43;;;;;;;4.45;1.98;;;20.10;70.30;;;;;;6259267;23;20125;-78
2021/10/28 18:48:10;;;;;;;3.08;1.98;;;20.00;70.10;;;;;;6233237;23;20133;-77
2021/10/28 18:50:36;;;;;;;3.03;1.90;;;20.10;69.80;;;;;;6231772;23;20457;-79
2021/10/28 18:53:02;;;;;;;3.60;2.05;;;20.00;69.30;;;;;;6233198;23;20161;-77
2021/10/28 18:55:28;;;;;;;6.43;2.08;;;20.10;69.90;;;;;;6259579;23;20133;-77
2021/10/28 18:57:54;;;;;;;3.15;2.00;;;20.10;70.50;;;;;;6257614;23;20133;-78
2021/10/28 19:00:21;;;;;;;6.95;2.17;;;20.10;70.70;;;;;;6229663;23;20177;-77
2021/10/28 19:02:47;;;;;;;3.88;1.80;;;20.00;69.60;;;;;;6258121;23;20133;-79
2021/10/28 19:05:13;;;;;;;4.53;1.73;;;20.10;69.20;;;;;;6252958;23;20133;-78
2021/10/28 19:07:39;;;;;;;5.60;2.33;;;20.10;70.00;;;;;;6207070;23;20252;-77
2021/10/28 19:10:05;;;;;;;3.97;2.30;;;20.00;70.50;;;;;;6256995;23;20141;-77
2021/10/28 19:12:31;;;;;;;4.10;2.20;;;20.00;70.30;;;;;;6234459;23;20126;-80
2021/10/28 19:14:59;;;;;;;5.15;2.33;;;20.00;70.00;;;;;;6230396;23;20130;-79
2021/10/28 19:17:26;;;;;;;3.28;2.10;;;20.00;69.90;;;;;;6260995;23;20156;-77
2021/10/28 19:19:51;;;;;;;5.10;2.00;;;20.00;70.10;;;;;;6234491;23;20192;-78
2021/10/28 19:22:18;;;;;;;6.03;2.20;;;20.00;69.80;;;;;;6259837;23;20565;-78
2021/10/28 19:24:44;;;;;;;3.15;2.38;;;20.00;69.50;;;;;;6234117;23;20130;-78
2021/10/28 19:27:11;;;;;;;5.47;2.15;;;20.00;69.60;;;;;;6234207;23;20173;-77
2021/10/28 19:29:42;;;;;;;2.63;2.10;;;20.00;69.60;;;;;;6260457;23;20165;-78
2021/10/28 19:32:15;;;;;;;4.95;2.47;;;20.00;69.10;;;;;;6260255;23;20129;-77
2021/10/28 19:34:43;;;;;;;4.75;2.67;;;20.00;69.40;;;;;;6260555;23;20130;-77
2021/10/28 19:37:22;;;;;;;6.38;2.47;;;19.90;69.00;;;;;;6260552;23;20126;-78
2021/10/28 19:40:15;;;;;;;6.13;2.22;;;19.90;69.50;;;;;;6235036;23;20171;-77
2021/10/28 19:45:29;;;;;;;3.60;2.03;;;19.90;70.20;;;;;;6260438;23;20130;-79
2021/10/28 19:47:56;;;;;;;4.40;2.53;;;20.00;69.80;;;;;;6234415;23;20130;-82
2021/10/28 19:50:22;;;;;;;3.78;2.20;;;20.00;70.00;;;;;;6255595;23;20192;-78
2021/10/28 19:52:48;;;;;;;3.40;2.20;;;19.90;69.50;;;;;;6260199;23;20138;-77
2021/10/28 19:55:19;;;;;;;5.15;2.53;;;19.90;70.10;;;;;;6261129;23;20133;-77
2021/10/28 19:57:50;;;;;;;3.65;2.15;;;19.90;69.50;;;;;;6261702;23;20133;-77
2021/10/28 20:00:29;;;;;;;2.97;2.28;;;19.90;69.30;;;;;;6258924;23;20185;-78
2021/10/28 20:14:08;;;;;;;4.05;2.13;;;19.80;71.30;;;;;;6261267;23;20133;-77
2021/10/28 20:21:54;;;;;;;2.80;2.30;;;19.80;72.10;;;;;;6261190;23;20252;-77
2021/10/28 20:24:21;;;;;;;3.97;2.10;;;19.80;72.00;;;;;;6234011;23;20225;-77
2021/10/28 20:26:48;;;;;;;3.30;2.30;;;19.70;72.40;;;;;;6235053;23;20125;-77
2021/10/28 20:29:15;;;;;;;5.20;2.20;;;19.70;72.30;;;;;;6235161;23;20129;-77
2021/10/28 20:31:44;;;;;;;5.03;2.40;;;19.70;72.30;;;;;;6260388;23;20153;-78
2021/10/28 20:34:14;;;;;;;4.18;2.30;;;19.70;72.40;;;;;;6261189;23;20129;-77
2021/10/28 20:39:24;;;;;;;3.10;2.38;;;19.70;72.60;;;;;;6238480;23;20169;-78
2021/10/28 20:41:50;;;;;;;4.43;2.10;;;19.70;72.50;;;;;;6234708;23;20133;-77
2021/10/28 20:44:16;;;;;;;3.55;2.25;;;19.70;73.00;;;;;;6260962;23;20687;-77
2021/10/28 20:46:42;;;;;;;4.85;2.35;;;19.60;72.90;;;;;;6261535;23;20149;-77
2021/10/28 20:49:08;;;;;;;2.47;2.03;;;19.70;73.10;;;;;;6260576;23;20130;-77
2021/10/28 20:51:34;;;;;;;2.97;2.08;;;19.70;73.20;;;;;;6261334;23;20125;-77
2021/10/28 20:54:03;;;;;;;2.30;1.95;;;19.60;73.20;;;;;;6260848;23;20137;-78